Terminal Aerodrome Forecast
Issued by NWS

Home | Current Version | Previous Version | Text Only | Print | Product List | Glossary On
Versions: 1 2 3 4 5 6 7 8 9 10 11 12
000
FTUS42 KFFC 050522
TAFFTY
TAF
KFTY 050522Z 0506/0606 00000KT P6SM SKC
     FM051800 11006KT P6SM FEW060 BKN090
     FM052300 15005KT P6SM FEW090
     FM060200 00000KT P6SM FEW230=

USA.gov is the U.S. government's official web portal to all federal, state and local government web resources and services.